createdAt,value
2018-09-02T00:01:03.626Z,17.30
2018-09-02T00:03:32.752Z,17.30
2018-09-02T00:06:01.872Z,17.30
2018-09-02T00:08:31.512Z,17.30
2018-09-02T00:11:01.329Z,17.20
2018-09-02T00:13:30.516Z,17.20
2018-09-02T00:15:59.789Z,17.20
2018-09-02T00:18:29.369Z,17.20
2018-09-02T00:20:58.593Z,17.20
2018-09-02T00:23:28.469Z,17.20
2018-09-02T00:25:57.763Z,17.10
2018-09-02T00:28:26.908Z,17.20
2018-09-02T00:30:56.149Z,17.10
2018-09-02T00:33:25.446Z,17.10
2018-09-02T00:35:54.552Z,17.10
2018-09-02T00:38:23.695Z,17.10
2018-09-02T00:40:53.331Z,16.90
2018-09-02T00:43:22.464Z,16.80
2018-09-02T00:45:51.610Z,16.90
2018-09-02T00:48:20.981Z,16.80
2018-09-02T00:50:50.068Z,16.90
2018-09-02T00:53:19.282Z,16.80
2018-09-02T00:55:48.405Z,16.90
2018-09-02T00:58:18.220Z,16.80
2018-09-02T01:00:47.292Z,16.80
2018-09-02T01:03:16.445Z,16.70
2018-09-02T01:05:45.489Z,16.70
2018-09-02T01:08:15.225Z,16.70
2018-09-02T01:10:44.341Z,16.60
2018-09-02T01:13:20.721Z,16.50
2018-09-02T01:15:49.788Z,16.50
2018-09-02T01:18:19.853Z,16.50
2018-09-02T01:20:49.001Z,16.40
2018-09-02T01:23:18.843Z,16.40
2018-09-02T01:25:47.946Z,16.40
2018-09-02T01:28:17.081Z,16.50
2018-09-02T01:30:46.184Z,16.50
2018-09-02T01:33:15.279Z,16.50
2018-09-02T01:35:44.378Z,16.50
2018-09-02T01:38:13.465Z,16.50
2018-09-02T01:40:42.580Z,16.40
2018-09-02T01:43:11.672Z,16.30
2018-09-02T01:45:42.014Z,16.30
2018-09-02T01:48:11.105Z,16.30
2018-09-02T01:50:40.365Z,16.30
2018-09-02T01:53:09.519Z,16.20
2018-09-02T01:55:39.894Z,16.20
2018-09-02T01:58:08.972Z,16.20
2018-09-02T02:00:38.102Z,16.20
2018-09-02T02:03:08.175Z,16.20
2018-09-02T02:05:38.450Z,16.20
2018-09-02T02:08:07.775Z,16.20
2018-09-02T02:10:37.685Z,16.20
2018-09-02T02:13:06.975Z,16.10
2018-09-02T02:15:36.443Z,16.10
2018-09-02T02:18:06.071Z,16.10
2018-09-02T02:20:35.161Z,16.20
2018-09-02T02:23:04.307Z,16.20
2018-09-02T02:25:33.360Z,16.10
2018-09-02T02:28:02.456Z,16.10
2018-09-02T02:30:31.541Z,16.10
2018-09-02T02:33:00.657Z,16.10
2018-09-02T02:35:29.940Z,16.00
2018-09-02T02:37:59.311Z,16.00
2018-09-02T02:40:28.440Z,16.10
2018-09-02T02:42:57.533Z,16.10
2018-09-02T02:45:27.245Z,16.10
2018-09-02T02:47:56.964Z,16.10
2018-09-02T02:50:26.053Z,16.10
2018-09-02T02:53:00.526Z,16.10
2018-09-02T02:55:29.660Z,16.10
2018-09-02T02:57:59.111Z,16.10
2018-09-02T03:00:28.445Z,16.20
2018-09-02T03:02:57.683Z,16.10
2018-09-02T03:05:26.774Z,16.00
2018-09-02T03:07:55.864Z,16.00
2018-09-02T03:10:25.069Z,15.90
2018-09-02T03:12:54.126Z,15.80
2018-09-02T03:15:23.240Z,15.90
2018-09-02T03:17:52.913Z,15.80
2018-09-02T03:20:22.000Z,15.80
2018-09-02T03:22:51.056Z,15.80
2018-09-02T03:25:20.944Z,15.70
2018-09-02T03:27:50.036Z,15.70
2018-09-02T03:30:19.123Z,15.60
2018-09-02T03:32:48.196Z,15.60
2018-09-02T03:35:17.284Z,15.60
2018-09-02T03:37:46.984Z,15.40
2018-09-02T03:40:16.916Z,15.50
2018-09-02T03:42:46.013Z,15.60
2018-09-02T03:45:15.704Z,15.60
2018-09-02T03:47:44.867Z,15.60
2018-09-02T03:50:14.431Z,15.50
2018-09-02T03:52:43.562Z,15.60
2018-09-02T03:55:12.733Z,15.50
2018-09-02T03:57:42.903Z,15.50
2018-09-02T04:00:13.056Z,15.40
2018-09-02T04:02:42.152Z,15.40
2018-09-02T04:05:11.255Z,15.50
2018-09-02T04:07:40.469Z,15.50
2018-09-02T04:10:09.559Z,15.50
2018-09-02T04:12:38.724Z,15.50
2018-09-02T04:15:07.984Z,15.40
2018-09-02T04:17:37.106Z,15.40
2018-09-02T04:20:07.358Z,15.40
2018-09-02T04:22:36.455Z,15.40
2018-09-02T04:25:05.733Z,15.40
2018-09-02T04:27:34.904Z,15.50
2018-09-02T04:30:04.077Z,15.50
2018-09-02T04:32:36.063Z,15.50
2018-09-02T04:35:05.934Z,15.50
2018-09-02T04:37:35.014Z,15.50
2018-09-02T04:40:05.667Z,15.40
2018-09-02T04:42:34.762Z,15.40
2018-09-02T04:45:04.183Z,15.40
2018-09-02T04:47:33.328Z,15.20
2018-09-02T04:50:09.487Z,15.20
2018-09-02T04:52:38.586Z,15.20
2018-09-02T04:55:07.688Z,15.40
2018-09-02T04:57:37.542Z,15.40
2018-09-02T05:00:07.609Z,15.30
2018-09-02T05:02:36.790Z,15.30
2018-09-02T05:05:05.913Z,15.30
2018-09-02T05:07:35.604Z,15.20
2018-09-02T05:10:05.756Z,15.20
2018-09-02T05:12:34.950Z,15.10
2018-09-02T05:15:04.114Z,15.20
2018-09-02T05:17:33.920Z,15.30
2018-09-02T05:20:03.060Z,15.40
2018-09-02T05:22:32.324Z,15.40
2018-09-02T05:25:01.440Z,15.50
2018-09-02T05:27:30.609Z,15.40
2018-09-02T05:30:02.962Z,15.30
2018-09-02T05:32:32.162Z,15.40
2018-09-02T05:35:01.353Z,15.30
2018-09-02T05:37:30.485Z,15.30
2018-09-02T05:39:59.660Z,15.20
2018-09-02T05:42:28.787Z,15.20
2018-09-02T05:44:57.957Z,15.20
2018-09-02T05:47:27.159Z,15.20
2018-09-02T05:49:56.467Z,15.20
2018-09-02T05:52:26.084Z,15.20
2018-09-02T05:54:56.167Z,15.20
2018-09-02T05:57:25.329Z,15.20
2018-09-02T05:59:54.404Z,15.20
2018-09-02T06:02:24.181Z,15.10
2018-09-02T06:04:53.993Z,15.20
2018-09-02T06:07:23.087Z,15.30
2018-09-02T06:09:52.189Z,15.40
2018-09-02T06:12:21.325Z,15.50
2018-09-02T06:14:50.443Z,15.50
2018-09-02T06:17:20.125Z,15.50
2018-09-02T06:19:49.172Z,15.60
2018-09-02T06:22:18.264Z,15.80
2018-09-02T06:24:47.394Z,15.90
2018-09-02T06:27:16.522Z,16.00
2018-09-02T06:29:45.917Z,16.00
2018-09-02T06:32:21.849Z,15.90
2018-09-02T06:34:51.001Z,15.90
2018-09-02T06:37:20.096Z,16.00
2018-09-02T06:39:49.204Z,16.10
2018-09-02T06:42:18.382Z,16.10
2018-09-02T06:44:47.831Z,16.20
2018-09-02T06:47:17.324Z,16.20
2018-09-02T06:49:46.797Z,16.20
2018-09-02T06:52:16.928Z,16.30
2018-09-02T06:54:46.105Z,16.40
2018-09-02T06:57:15.663Z,16.30
2018-09-02T06:59:44.900Z,16.40
2018-09-02T07:02:13.979Z,16.50
2018-09-02T07:04:43.120Z,16.50
2018-09-02T07:07:12.302Z,16.50
2018-09-02T07:09:41.448Z,16.50
2018-09-02T07:12:11.912Z,16.50
2018-09-02T07:14:41.088Z,16.40
2018-09-02T07:17:10.244Z,16.40
2018-09-02T07:19:39.432Z,16.40
2018-09-02T07:22:09.840Z,16.30
2018-09-02T07:24:39.036Z,16.50
2018-09-02T07:27:09.124Z,16.50
2018-09-02T07:29:38.341Z,16.50
2018-09-02T07:32:08.437Z,16.40
2018-09-02T07:34:37.603Z,16.50
2018-09-02T07:37:06.697Z,16.70
2018-09-02T07:39:36.906Z,16.80
2018-09-02T07:42:06.140Z,17.00
2018-09-02T07:44:35.424Z,17.10
2018-09-02T07:47:07.969Z,17.20
2018-09-02T07:49:47.715Z,17.30
2018-09-02T07:52:20.940Z,17.40
2018-09-02T07:54:54.620Z,17.50
2018-09-02T07:57:27.776Z,17.50
2018-09-02T08:00:00.709Z,17.60
2018-09-02T08:02:34.745Z,17.70
2018-09-02T08:05:08.144Z,17.90
2018-09-02T08:07:37.616Z,18.00
2018-09-02T08:10:08.468Z,18.20
2018-09-02T08:12:37.954Z,18.40
2018-09-02T08:15:08.293Z,18.50
2018-09-02T08:17:37.407Z,18.60
2018-09-02T08:20:07.421Z,18.70
2018-09-02T08:22:37.283Z,18.90
2018-09-02T08:25:06.792Z,19.00
2018-09-02T08:27:36.386Z,19.00
2018-09-02T08:30:05.995Z,19.00
2018-09-02T08:32:35.249Z,19.10
2018-09-02T08:35:04.417Z,19.30
2018-09-02T08:37:33.645Z,19.30
2018-09-02T08:40:03.424Z,19.30
2018-09-02T08:42:33.409Z,19.50
2018-09-02T08:45:03.288Z,19.70
2018-09-02T08:47:32.460Z,20.00
2018-09-02T08:50:02.159Z,20.20
2018-09-02T08:52:31.592Z,20.30
2018-09-02T08:55:01.060Z,20.20
2018-09-02T08:57:30.549Z,20.20
2018-09-02T09:00:00.813Z,20.40
2018-09-02T09:02:30.685Z,20.60
2018-09-02T09:05:00.220Z,20.80
2018-09-02T09:07:30.786Z,21.20
2018-09-02T09:09:59.867Z,21.50
2018-09-02T09:12:28.999Z,21.60
2018-09-02T09:14:58.140Z,21.60
2018-09-02T09:17:29.560Z,21.90
2018-09-02T09:19:58.718Z,22.20
2018-09-02T09:22:28.628Z,22.40
2018-09-02T09:24:57.739Z,22.60
2018-09-02T09:27:26.983Z,22.50
2018-09-02T09:29:56.931Z,22.80
2018-09-02T09:32:26.681Z,23.00
2018-09-02T09:34:55.813Z,23.40
2018-09-02T09:37:24.999Z,24.50
2018-09-02T09:39:54.088Z,26.00
2018-09-02T09:42:24.462Z,26.90
2018-09-02T09:44:53.926Z,28.20
2018-09-02T09:47:23.036Z,29.50
2018-09-02T09:49:52.719Z,29.70
2018-09-02T09:52:21.906Z,30.10
2018-09-02T09:54:51.720Z,30.60
2018-09-02T09:57:20.981Z,31.80
2018-09-02T09:59:50.193Z,33.20
2018-09-02T10:02:19.458Z,34.20
2018-09-02T10:04:48.613Z,35.20
2018-09-02T10:07:17.862Z,36.10
2018-09-02T10:09:47.178Z,36.80
2018-09-02T10:12:16.268Z,37.20
2018-09-02T10:14:45.442Z,37.20
2018-09-02T10:17:14.893Z,37.10
2018-09-02T10:19:44.070Z,37.70
2018-09-02T10:22:14.069Z,38.80
2018-09-02T10:24:43.299Z,39.90
2018-09-02T10:27:13.308Z,41.10
2018-09-02T10:29:42.413Z,41.00
2018-09-02T10:32:11.590Z,39.40
2018-09-02T10:34:41.510Z,38.00
2018-09-02T10:37:11.421Z,37.80
2018-09-02T10:39:40.585Z,37.10
2018-09-02T10:42:09.849Z,36.70
2018-09-02T10:44:39.088Z,36.00
2018-09-02T10:47:08.779Z,35.80
2018-09-02T10:49:37.998Z,36.00
2018-09-02T10:52:07.356Z,35.90
2018-09-02T10:54:36.565Z,36.00
2018-09-02T10:57:06.527Z,35.50
2018-09-02T10:59:35.701Z,36.10
2018-09-02T11:02:05.176Z,36.40
2018-09-02T11:04:34.327Z,36.40
2018-09-02T11:07:04.184Z,36.70
2018-09-02T11:09:33.323Z,36.40
2018-09-02T11:12:02.712Z,37.10
2018-09-02T11:14:32.169Z,38.00
2018-09-02T11:17:02.197Z,37.80
2018-09-02T11:19:31.501Z,36.80
2018-09-02T11:22:01.694Z,36.60
2018-09-02T11:24:31.485Z,36.90
2018-09-02T11:27:00.737Z,37.00
2018-09-02T11:29:30.985Z,36.50
2018-09-02T11:32:00.318Z,36.00
2018-09-02T11:34:30.559Z,35.50
2018-09-02T11:36:59.859Z,35.10
2018-09-02T11:39:29.104Z,35.30
2018-09-02T11:41:58.440Z,35.60
2018-09-02T11:44:28.264Z,35.30
2018-09-02T11:46:57.527Z,34.50
2018-09-02T11:49:26.654Z,33.90
2018-09-02T11:51:55.830Z,34.40
2018-09-02T11:54:25.033Z,34.50
2018-09-02T11:56:54.164Z,35.10
2018-09-02T11:59:23.403Z,34.70
2018-09-02T12:01:52.632Z,34.30
2018-09-02T12:04:21.938Z,35.50
2018-09-02T12:06:51.340Z,35.60
2018-09-02T12:09:20.609Z,35.60
2018-09-02T12:11:50.460Z,35.90
2018-09-02T12:14:19.561Z,35.30
2018-09-02T12:16:49.957Z,34.80
2018-09-02T12:19:19.114Z,33.00
2018-09-02T12:21:48.481Z,31.50
2018-09-02T12:24:17.816Z,30.20
2018-09-02T12:26:48.076Z,28.60
2018-09-02T12:29:17.367Z,27.60
2018-09-02T12:31:47.135Z,27.00
2018-09-02T12:34:17.048Z,26.60
2018-09-02T12:36:46.881Z,26.30
2018-09-02T12:39:16.787Z,26.00
2018-09-02T12:41:46.015Z,25.70
2018-09-02T12:44:15.245Z,25.60
2018-09-02T12:46:44.308Z,25.50
2018-09-02T12:49:14.005Z,25.40
2018-09-02T12:51:43.186Z,25.40
2018-09-02T12:54:13.386Z,25.40
2018-09-02T12:56:42.633Z,25.60
2018-09-02T12:59:11.762Z,25.50
2018-09-02T13:01:42.596Z,25.50
2018-09-02T13:04:11.737Z,25.60
2018-09-02T13:06:40.945Z,25.50
2018-09-02T13:09:10.194Z,25.70
2018-09-02T13:11:39.784Z,25.80
2018-09-02T13:14:09.125Z,25.70
2018-09-02T13:16:38.329Z,25.70
2018-09-02T13:19:07.644Z,25.60
2018-09-02T13:21:38.023Z,25.60
2018-09-02T13:24:07.852Z,25.80
2018-09-02T13:26:36.965Z,25.60
2018-09-02T13:29:06.984Z,25.60
2018-09-02T13:31:37.408Z,25.50
2018-09-02T13:34:08.518Z,25.30
2018-09-02T13:36:37.664Z,25.30
2018-09-02T13:39:08.246Z,25.30
2018-09-02T13:41:37.702Z,25.30
2018-09-02T13:44:07.565Z,25.30
2018-09-02T13:46:37.230Z,25.50
2018-09-02T13:49:06.533Z,25.60
2018-09-02T13:51:36.381Z,25.50
2018-09-02T13:54:05.541Z,25.30
2018-09-02T13:56:34.676Z,25.20
2018-09-02T13:59:04.634Z,25.30
2018-09-02T14:01:34.268Z,25.30
2018-09-02T14:04:03.507Z,25.30
2018-09-02T14:06:32.749Z,25.30
2018-09-02T14:09:04.607Z,25.20
2018-09-02T14:11:33.851Z,25.30
2018-09-02T14:14:03.022Z,25.20
2018-09-02T14:16:32.347Z,25.30
2018-09-02T14:19:02.017Z,25.30
2018-09-02T14:21:31.298Z,25.30
2018-09-02T14:24:00.996Z,25.40
2018-09-02T14:26:31.085Z,25.40
2018-09-02T14:29:00.322Z,25.50
2018-09-02T14:31:29.557Z,25.70
2018-09-02T14:33:58.823Z,25.70
2018-09-02T14:36:27.966Z,25.70
2018-09-02T14:38:57.096Z,25.60
2018-09-02T14:41:26.328Z,25.60
2018-09-02T14:43:55.597Z,25.80
2018-09-02T14:46:24.862Z,26.00
2018-09-02T14:48:54.628Z,26.00
2018-09-02T14:51:23.744Z,26.00
2018-09-02T14:53:53.041Z,25.90
2018-09-02T14:56:22.200Z,25.80
2018-09-02T14:58:52.020Z,25.70
2018-09-02T15:01:21.327Z,25.90
2018-09-02T15:03:51.028Z,25.70
2018-09-02T15:06:26.688Z,25.60
2018-09-02T15:08:56.027Z,25.50
2018-09-02T15:11:25.229Z,25.40
2018-09-02T15:13:54.458Z,25.50
2018-09-02T15:16:23.805Z,25.70
2018-09-02T15:18:53.037Z,25.60
2018-09-02T15:21:22.367Z,25.50
2018-09-02T15:23:52.206Z,25.30
2018-09-02T15:26:21.378Z,25.20
2018-09-02T15:28:50.780Z,25.20
2018-09-02T15:31:20.972Z,25.10
2018-09-02T15:33:50.264Z,25.00
2018-09-02T15:36:20.010Z,24.70
2018-09-02T15:38:49.185Z,24.50
2018-09-02T15:41:18.902Z,24.40
2018-09-02T15:43:48.246Z,24.30
2018-09-02T15:46:17.472Z,24.30
2018-09-02T15:48:47.156Z,24.20
2018-09-02T15:51:16.388Z,24.30
2018-09-02T15:53:45.609Z,24.30
2018-09-02T15:56:14.767Z,24.30
2018-09-02T15:58:44.028Z,24.10
2018-09-02T16:01:13.501Z,24.10
2018-09-02T16:03:43.123Z,24.10
2018-09-02T16:06:12.291Z,24.10
2018-09-02T16:08:41.561Z,24.30
2018-09-02T16:11:10.859Z,24.30
2018-09-02T16:13:40.174Z,24.30
2018-09-02T16:16:10.050Z,24.30
2018-09-02T16:18:39.208Z,24.30
2018-09-02T16:21:08.487Z,24.30
2018-09-02T16:23:37.733Z,24.30
2018-09-02T16:26:06.909Z,24.20
2018-09-02T16:28:37.032Z,24.20
2018-09-02T16:31:07.180Z,24.10
2018-09-02T16:33:36.299Z,24.00
2018-09-02T16:36:05.682Z,24.00
2018-09-02T16:38:35.444Z,23.90
2018-09-02T16:41:04.707Z,23.90
2018-09-02T16:43:33.858Z,23.90
2018-09-02T16:46:03.104Z,23.80
2018-09-02T16:48:32.355Z,23.70
2018-09-02T16:51:01.621Z,23.70
2018-09-02T16:53:30.893Z,23.50
2018-09-02T16:56:00.006Z,23.40
2018-09-02T16:58:29.836Z,23.30
2018-09-02T17:00:59.013Z,23.20
2018-09-02T17:03:30.977Z,23.20
2018-09-02T17:06:00.810Z,23.10
2018-09-02T17:08:30.709Z,23.00
2018-09-02T17:11:01.150Z,22.90
2018-09-02T17:13:30.876Z,22.90
2018-09-02T17:16:00.929Z,22.90
2018-09-02T17:18:30.169Z,22.90
2018-09-02T17:21:00.009Z,22.90
2018-09-02T17:23:30.640Z,22.80
2018-09-02T17:25:59.867Z,22.80
2018-09-02T17:28:29.120Z,22.80
2018-09-02T17:30:58.330Z,22.70
2018-09-02T17:33:28.237Z,22.70
2018-09-02T17:35:57.481Z,22.70
2018-09-02T17:38:26.802Z,22.70
2018-09-02T17:40:55.985Z,22.70
2018-09-02T17:43:25.137Z,22.70
2018-09-02T17:45:55.116Z,22.70
2018-09-02T17:48:31.117Z,22.70
2018-09-02T17:51:00.344Z,22.70
2018-09-02T17:53:29.480Z,22.60
2018-09-02T17:55:58.673Z,22.60
2018-09-02T17:58:28.142Z,22.60
2018-09-02T18:00:58.580Z,22.50
2018-09-02T18:03:27.824Z,22.50
2018-09-02T18:05:57.226Z,22.30
2018-09-02T18:08:26.541Z,22.20
2018-09-02T18:10:55.862Z,22.10
2018-09-02T18:13:25.139Z,22.10
2018-09-02T18:15:54.481Z,22.20
2018-09-02T18:18:23.611Z,22.20
2018-09-02T18:20:53.005Z,22.20
2018-09-02T18:23:22.682Z,22.20
2018-09-02T18:25:51.954Z,22.20
2018-09-02T18:28:23.984Z,22.30
2018-09-02T18:30:53.220Z,22.30
2018-09-02T18:33:22.575Z,22.20
2018-09-02T18:35:51.821Z,22.30
2018-09-02T18:38:21.349Z,22.40
2018-09-02T18:40:50.931Z,22.30
2018-09-02T18:43:20.246Z,22.30
2018-09-02T18:45:49.433Z,22.30
2018-09-02T18:48:18.827Z,22.30
2018-09-02T18:50:48.651Z,22.20
2018-09-02T18:53:18.472Z,22.20
2018-09-02T18:55:47.797Z,22.20
2018-09-02T18:58:18.386Z,22.30
2018-09-02T19:00:47.750Z,22.30
2018-09-02T19:03:17.056Z,22.30
2018-09-02T19:05:46.365Z,22.30
2018-09-02T19:08:15.584Z,22.30
2018-09-02T19:10:44.968Z,22.30
2018-09-02T19:13:14.195Z,22.40
2018-09-02T19:15:44.220Z,22.30
2018-09-02T19:18:13.413Z,22.30
2018-09-02T19:20:42.668Z,22.30
2018-09-02T19:23:11.934Z,22.30
2018-09-02T19:25:41.184Z,22.20
2018-09-02T19:28:11.136Z,22.20
2018-09-02T19:30:40.552Z,22.10
2018-09-02T19:33:09.764Z,22.10
2018-09-02T19:35:38.966Z,22.10
2018-09-02T19:38:09.018Z,22.10
2018-09-02T19:40:38.365Z,22.10
2018-09-02T19:43:07.547Z,22.10
2018-09-02T19:45:36.940Z,22.10
2018-09-02T19:48:06.710Z,22.10
2018-09-02T19:50:35.947Z,22.10
2018-09-02T19:53:06.005Z,22.10
2018-09-02T19:55:35.308Z,22.10
2018-09-02T19:58:05.563Z,22.10
2018-09-02T20:00:34.884Z,22.10
2018-09-02T20:03:05.481Z,22.00
2018-09-02T20:05:34.621Z,22.00
2018-09-02T20:08:03.953Z,22.00
2018-09-02T20:10:33.122Z,21.90
2018-09-02T20:13:02.545Z,21.90
2018-09-02T20:15:31.946Z,21.90
2018-09-02T20:18:01.254Z,21.90
2018-09-02T20:20:30.506Z,22.00
2018-09-02T20:23:01.271Z,22.00
2018-09-02T20:25:30.512Z,22.00
2018-09-02T20:28:00.309Z,21.90
2018-09-02T20:30:29.509Z,21.90
2018-09-02T20:32:58.939Z,21.90
2018-09-02T20:35:28.324Z,21.90
2018-09-02T20:37:57.485Z,21.90
2018-09-02T20:40:26.733Z,22.00
2018-09-02T20:42:55.881Z,22.00
2018-09-02T20:45:25.048Z,22.00
2018-09-02T20:47:54.282Z,22.00
2018-09-02T20:50:23.533Z,22.00
2018-09-02T20:52:52.708Z,22.00
2018-09-02T20:55:22.110Z,22.00
2018-09-02T20:57:51.321Z,22.00
2018-09-02T21:00:20.556Z,22.00
2018-09-02T21:02:50.350Z,22.00
2018-09-02T21:05:19.618Z,22.00
2018-09-02T21:07:48.711Z,21.90
2018-09-02T21:10:17.879Z,21.80
2018-09-02T21:12:47.168Z,21.80
2018-09-02T21:15:16.605Z,21.70
2018-09-02T21:17:46.468Z,21.70
2018-09-02T21:20:15.852Z,21.60
2018-09-02T21:22:45.481Z,21.60
2018-09-02T21:25:14.616Z,21.60
2018-09-02T21:27:43.817Z,21.70
2018-09-02T21:30:12.985Z,21.70
2018-09-02T21:32:43.149Z,21.70
2018-09-02T21:35:12.332Z,21.80
2018-09-02T21:37:41.441Z,21.80
2018-09-02T21:40:10.572Z,21.80
2018-09-02T21:42:39.695Z,21.70
2018-09-02T21:45:09.507Z,21.80
2018-09-02T21:47:38.745Z,21.80
2018-09-02T21:50:08.012Z,21.80
2018-09-02T21:52:37.321Z,21.80
2018-09-02T21:55:06.801Z,21.80
2018-09-02T21:57:36.628Z,21.80
2018-09-02T22:00:09.017Z,21.80
2018-09-02T22:02:38.124Z,21.70
2018-09-02T22:05:08.991Z,21.80
2018-09-02T22:07:39.664Z,21.80
2018-09-02T22:10:08.989Z,21.80
2018-09-02T22:12:38.847Z,21.80
2018-09-02T22:15:08.881Z,21.80
2018-09-02T22:17:38.220Z,21.70
2018-09-02T22:20:07.735Z,21.70
2018-09-02T22:22:36.984Z,21.70
2018-09-02T22:25:07.378Z,21.70
2018-09-02T22:27:37.264Z,21.70
2018-09-02T22:30:07.516Z,21.70
2018-09-02T22:32:43.319Z,21.70
2018-09-02T22:35:12.427Z,21.70
2018-09-02T22:37:41.543Z,21.70
2018-09-02T22:40:11.308Z,21.70
2018-09-02T22:42:40.535Z,21.60
2018-09-02T22:45:10.463Z,21.50
2018-09-02T22:47:39.680Z,21.50
2018-09-02T22:50:08.884Z,21.50
2018-09-02T22:52:38.016Z,21.50
2018-09-02T22:55:07.180Z,21.50
2018-09-02T22:57:36.349Z,21.40
2018-09-02T23:00:05.972Z,21.40
2018-09-02T23:02:35.074Z,21.40
2018-09-02T23:05:04.918Z,21.30
2018-09-02T23:07:34.091Z,21.30
2018-09-02T23:10:03.839Z,21.30
2018-09-02T23:12:33.123Z,21.30
2018-09-02T23:15:02.242Z,21.30
2018-09-02T23:17:32.160Z,21.30
2018-09-02T23:20:01.922Z,21.20
2018-09-02T23:22:31.192Z,21.20
2018-09-02T23:25:01.188Z,21.20
2018-09-02T23:27:30.281Z,21.20
2018-09-02T23:29:59.377Z,21.20
2018-09-02T23:32:28.480Z,21.20
2018-09-02T23:34:57.566Z,21.20
2018-09-02T23:37:26.658Z,21.20
2018-09-02T23:39:56.432Z,21.20
2018-09-02T23:42:25.538Z,21.20
2018-09-02T23:44:54.652Z,21.20
2018-09-02T23:47:23.859Z,21.10
2018-09-02T23:49:52.941Z,21.10
2018-09-02T23:52:22.652Z,21.00
2018-09-02T23:54:52.124Z,21.00
2018-09-02T23:57:21.508Z,21.00
2018-09-02T23:59:50.956Z,20.90
